Terminal Aerodrome Forecast
Issued by NWS Tuscon, AZ

Home | Current Version | Previous Version | Text Only | Print | Product List | Glossary On
Versions: 1 2 3 4 5 6 7 8 9 10 11 12
000
FTUS45 KTWC 280500
TAFTUS
TAF
KTUS 280536Z 2806/0106 21008KT P6SM SCT250
     FM280900 17007KT P6SM SCT250
     FM281600 19015G23KT P6SM SCT060 SCT150 BKN250
     FM282000 22019G29KT P6SM SCT060 BKN150
     FM010300 20011KT P6SM SCT050 BKN120=

USA.gov is the U.S. government's official web portal to all federal, state and local government web resources and services.